Time;durP1;ratioP1;P1;durP2;ratioP2;P2;SDS_P1;SDS_P2;PMS_P1;PMS_P2;Temp;Humidity;BMP_temperature;BMP_pressure;BME280_temperature;BME280_humidity;BME280_pressure;Samples;Min_cycle;Max_cycle;Signal;HPM_P1;HPM_P2
2024/01/10 00:00:43;;;;;;;12.53;6.43;;;;;;;-4.94;90.48;98995.34;5053583;28;20219;-79
2024/01/10 00:03:09;;;;;;;11.37;6.77;;;;;;;-4.89;89.38;98992.84;5053226;28;20260;-81
2024/01/10 00:05:35;;;;;;;12.87;6.63;;;;;;;-4.88;89.16;98989.41;5053249;28;20209;-79
2024/01/10 00:08:02;;;;;;;12.13;7.10;;;;;;;-4.86;88.62;98985.09;5053222;28;20217;-81
2024/01/10 00:10:30;;;;;;;11.60;6.60;;;;;;;-4.82;88.57;98981.69;5053544;28;20220;-81
2024/01/10 00:12:56;;;;;;;14.37;6.83;;;;;;;-4.78;87.80;98975.66;5053952;28;20232;-79
2024/01/10 00:15:23;;;;;;;13.13;7.50;;;;;;;-4.71;87.55;98972.28;5054165;28;20238;-79
2024/01/10 00:17:49;;;;;;;13.23;7.33;;;;;;;-4.69;87.46;98975.72;5054186;28;20679;-81
2024/01/10 00:20:16;;;;;;;12.67;7.27;;;;;;;-4.67;88.08;98982.63;5054490;28;20216;-81
2024/01/10 00:22:43;;;;;;;11.30;6.20;;;;;;;-4.65;88.36;98980.03;5054109;28;20691;-82
2024/01/10 00:25:09;;;;;;;12.77;6.80;;;;;;;-4.60;88.35;98971.47;5054376;28;20228;-80
2024/01/10 00:27:37;;;;;;;17.37;7.50;;;;;;;-4.59;88.12;98972.34;5053672;28;20299;-80
2024/01/10 00:30:05;;;;;;;12.97;7.23;;;;;;;-4.58;88.03;98969.72;5054040;28;20209;-80
2024/01/10 00:32:31;;;;;;;14.40;7.13;;;;;;;-4.54;87.74;98970.59;5053810;28;20600;-80
2024/01/10 00:34:58;;;;;;;12.53;7.27;;;;;;;-4.55;87.02;98961.16;5054289;28;20228;-80
2024/01/10 00:37:24;;;;;;;12.90;7.33;;;;;;;-4.54;86.70;98955.13;5053912;28;20220;-80
2024/01/10 00:39:51;;;;;;;14.70;6.97;;;;;;;-4.50;87.21;98962.03;5056041;28;20206;-80
2024/01/10 00:42:17;;;;;;;14.00;6.83;;;;;;;-4.48;87.55;98965.47;5057621;28;20608;-80
2024/01/10 00:44:45;;;;;;;13.63;7.17;;;;;;;-4.45;87.96;98970.66;5057630;28;20223;-80
2024/01/10 00:47:12;;;;;;;13.67;7.03;;;;;;;-4.43;88.18;98968.94;5057947;28;20572;-80
2024/01/10 00:49:38;;;;;;;14.73;6.93;;;;;;;-4.42;88.10;98965.47;5058304;28;20206;-80
2024/01/10 00:52:05;;;;;;;10.87;5.93;;;;;;;-4.40;88.63;98963.78;5057332;28;20228;-80
2024/01/10 00:54:32;;;;;;;13.57;7.53;;;;;;;-4.43;88.90;98972.38;5057829;28;20215;-80
2024/01/10 00:56:58;;;;;;;11.40;6.57;;;;;;;-4.41;88.39;98970.66;5057316;28;20224;-80
2024/01/10 00:59:25;;;;;;;11.50;6.33;;;;;;;-4.41;88.27;98974.97;5057405;28;20711;-80
2024/01/10 01:01:52;;;;;;;10.43;6.40;;;;;;;-4.40;88.02;98958.63;5057284;28;20237;-80
2024/01/10 01:04:19;;;;;;;12.00;6.30;;;;;;;-4.37;87.17;98961.19;5057558;28;20219;-80
2024/01/10 01:06:46;;;;;;;15.03;7.57;;;;;;;-4.39;86.93;98960.34;5057043;28;20584;-79
2024/01/10 01:09:13;;;;;;;12.37;6.33;;;;;;;-4.38;86.67;98956.91;5057712;28;20213;-80
2024/01/10 01:11:40;;;;;;;13.40;6.60;;;;;;;-4.38;86.58;98964.66;5057299;28;20607;-80
2024/01/10 01:14:07;;;;;;;14.13;6.70;;;;;;;-4.41;86.61;98965.50;5057700;28;20211;-80
2024/01/10 01:16:34;;;;;;;11.83;6.10;;;;;;;-4.47;87.09;98962.91;5056975;28;20320;-79
2024/01/10 01:19:02;;;;;;;12.63;6.20;;;;;;;-4.52;87.31;98974.06;5057510;28;20205;-80
2024/01/10 01:21:28;;;;;;;11.73;6.20;;;;;;;-4.55;88.08;98985.22;5057247;28;20234;-81
2024/01/10 01:23:55;;;;;;;13.30;6.93;;;;;;;-4.56;88.33;98992.97;5057418;28;20685;-80
2024/01/10 01:26:21;;;;;;;11.90;6.83;;;;;;;-4.54;88.55;98986.06;5057450;28;20661;-80
2024/01/10 01:28:48;;;;;;;13.77;6.83;;;;;;;-4.55;89.18;98992.09;5058158;28;20214;-79
2024/01/10 01:31:14;;;;;;;12.53;6.70;;;;;;;-4.57;88.75;98992.13;5058425;28;20245;-79
2024/01/10 01:33:41;;;;;;;14.40;7.00;;;;;;;-4.55;88.12;98984.34;5057098;28;20228;-81
2024/01/10 01:36:08;;;;;;;13.17;7.13;;;;;;;-4.55;88.24;98990.41;5057343;28;20232;-79
2024/01/10 01:38:36;;;;;;;13.13;6.87;;;;;;;-4.53;88.33;98982.66;5057968;28;20586;-80
2024/01/10 01:41:03;;;;;;;12.80;6.57;;;;;;;-4.48;88.60;98980.94;5057520;28;20220;-80
2024/01/10 01:43:29;;;;;;;14.53;7.33;;;;;;;-4.44;87.55;98982.69;5057519;28;20211;-79
2024/01/10 01:45:57;;;;;;;12.70;6.83;;;;;;;-4.38;87.08;98969.81;5057983;28;20209;-80
2024/01/10 01:48:25;;;;;;;10.83;6.40;;;;;;;-4.36;86.41;98962.91;5057802;28;20204;-81
2024/01/10 01:50:54;;;;;;;13.23;6.83;;;;;;;-4.35;86.32;98968.09;5056745;28;20253;-81
2024/01/10 01:53:23;;;;;;;11.10;7.43;;;;;;;-4.31;85.64;98969.84;5057985;28;20214;-81
2024/01/10 01:55:50;;;;;;;13.87;7.07;;;;;;;-4.29;85.57;98952.63;5057942;28;20226;-81
2024/01/10 01:58:18;;;;;;;12.20;6.10;;;;;;;-4.27;85.51;98944.91;5057619;28;20214;-80
2024/01/10 02:00:45;;;;;;;14.30;6.47;;;;;;;-4.25;85.89;98956.06;5057593;28;20269;-80
2024/01/10 02:03:11;;;;;;;15.00;7.17;;;;;;;-4.19;85.97;98958.66;5057357;28;20234;-81
2024/01/10 02:05:38;;;;;;;12.23;6.77;;;;;;;-4.18;85.98;98960.38;5056882;28;20206;-81
2024/01/10 02:08:05;;;;;;;15.33;7.63;;;;;;;-4.11;86.24;98967.25;5058488;28;20249;-80
2024/01/10 02:10:33;;;;;;;13.10;6.50;;;;;;;-4.12;86.68;98961.25;5060300;28;20217;-80
2024/01/10 02:13:00;;;;;;;14.90;6.90;;;;;;;-4.06;86.59;98966.44;5063648;28;20238;-81
2024/01/10 02:15:27;;;;;;;15.77;7.13;;;;;;;-4.06;86.45;98960.41;5062808;28;20242;-81
2024/01/10 02:17:53;;;;;;;10.00;6.13;;;;;;;-4.01;86.54;98959.56;5062621;28;20214;-81
2024/01/10 02:20:20;;;;;;;14.27;6.80;;;;;;;-3.99;86.17;98960.41;5062945;28;20212;-81
2024/01/10 02:22:48;;;;;;;14.30;6.77;;;;;;;-4.00;84.94;98955.25;5063171;28;20237;-81
2024/01/10 02:25:16;;;;;;;10.23;6.60;;;;;;;-4.05;84.58;98942.34;5063583;28;20206;-81
2024/01/10 02:27:43;;;;;;;12.50;6.23;;;;;;;-4.07;84.94;98950.94;5062879;28;20215;-81
2024/01/10 02:30:10;;;;;;;12.70;7.30;;;;;;;-4.11;85.38;98946.63;5062321;28;20218;-81
2024/01/10 02:32:37;;;;;;;13.47;6.47;;;;;;;-4.15;85.95;98950.06;5062023;28;20229;-81
2024/01/10 02:35:04;;;;;;;11.53;6.00;;;;;;;-4.19;86.56;98953.50;5063042;28;20216;-80
2024/01/10 02:37:31;;;;;;;15.07;7.20;;;;;;;-4.19;87.00;98948.34;5061866;28;20230;-81
2024/01/10 02:39:57;;;;;;;13.43;7.03;;;;;;;-4.26;86.77;98946.59;5062753;28;20212;-80
2024/01/10 02:42:25;;;;;;;12.23;6.57;;;;;;;-4.33;86.95;98950.88;5061806;28;20256;-81
2024/01/10 02:44:51;;;;;;;12.97;6.93;;;;;;;-4.36;87.07;98944.84;5057767;28;20695;-80
2024/01/10 02:47:18;;;;;;;15.27;7.40;;;;;;;-4.37;87.24;98937.97;5057040;28;20214;-80
2024/01/10 02:49:45;;;;;;;16.47;7.00;;;;;;;-4.45;87.32;98944.84;5057899;28;20301;-81
2024/01/10 02:52:12;;;;;;;15.77;7.20;;;;;;;-4.54;87.66;98939.66;5056951;28;20229;-80
2024/01/10 02:54:39;;;;;;;12.83;6.90;;;;;;;-4.59;88.09;98943.97;5057655;28;20218;-80
2024/01/10 02:57:05;;;;;;;10.83;6.23;;;;;;;-4.67;88.73;98945.63;5058062;28;20240;-81
2024/01/10 02:59:33;;;;;;;13.20;7.13;;;;;;;-4.73;89.54;98950.78;5059244;28;20219;-80
2024/01/10 03:02:00;;;;;;;14.37;6.87;;;;;;;-4.75;89.74;98960.22;5057302;28;20238;-80
2024/01/10 03:04:26;;;;;;;14.27;6.80;;;;;;;-4.81;89.94;98952.47;5058024;28;20264;-80
2024/01/10 03:06:52;;;;;;;13.67;7.50;;;;;;;-4.85;90.47;98963.59;5057904;28;20205;-80
2024/01/10 03:09:19;;;;;;;13.73;6.40;;;;;;;-4.90;90.60;98949.88;5057255;28;20213;-80
2024/01/10 03:11:45;;;;;;;17.67;7.40;;;;;;;-4.94;90.58;98953.28;5058672;28;20235;-80
2024/01/10 03:14:12;;;;;;;12.97;7.57;;;;;;;-4.98;90.88;98956.69;5057864;28;20212;-80
2024/01/10 03:16:40;;;;;;;10.63;6.67;;;;;;;-5.04;91.48;98949.81;5057734;28;20238;-80
2024/01/10 03:22:40;;;;;;;13.17;6.83;;;;;;;-5.02;93.74;98965.28;5010485;28;20238;-80
2024/01/10 03:25:07;;;;;;;14.53;6.93;;;;;;;-4.94;93.98;98963.59;5057702;28;20697;-80
2024/01/10 03:27:33;;;;;;;11.57;6.57;;;;;;;-4.86;94.70;98961.91;5058089;28;20215;-79
2024/01/10 03:30:00;;;;;;;15.67;7.93;;;;;;;-4.75;95.52;98961.09;5057735;28;20213;-80
2024/01/10 03:32:28;;;;;;;12.00;6.80;;;;;;;-4.62;96.06;98959.41;5057491;28;20322;-80
2024/01/10 03:34:54;;;;;;;13.20;6.83;;;;;;;-4.52;96.01;98948.28;5057249;28;20237;-80
2024/01/10 03:37:20;;;;;;;11.57;6.63;;;;;;;-4.48;95.48;98950.84;5056472;28;20318;-80
2024/01/10 03:39:46;;;;;;;13.43;7.17;;;;;;;-4.40;95.15;98953.47;5056849;28;20205;-82
2024/01/10 03:42:13;;;;;;;9.13;6.07;;;;;;;-4.38;94.70;98949.16;5056959;28;20240;-80
2024/01/10 03:44:39;;;;;;;13.03;7.40;;;;;;;-4.36;94.76;98940.56;5057862;28;20210;-80
2024/01/10 03:47:06;;;;;;;14.43;7.23;;;;;;;-4.31;94.34;98948.31;5057420;28;20205;-80
2024/01/10 03:49:34;;;;;;;15.80;7.57;;;;;;;-4.29;93.78;98946.63;5058904;28;20216;-80
2024/01/10 03:52:00;;;;;;;11.93;6.33;;;;;;;-4.26;93.64;98947.47;5058326;28;20230;-80
2024/01/10 03:54:27;;;;;;;13.27;7.70;;;;;;;-4.21;93.68;98950.91;5059308;28;20223;-80
2024/01/10 03:56:53;;;;;;;14.10;7.37;;;;;;;-4.14;93.58;98938.88;5058756;28;20235;-80
2024/01/10 03:59:19;;;;;;;15.57;7.20;;;;;;;-4.09;93.39;98939.75;5059066;28;20214;-80
2024/01/10 04:01:46;;;;;;;12.93;7.40;;;;;;;-4.04;93.87;98927.72;5059134;28;20240;-81
2024/01/10 04:04:12;;;;;;;13.33;7.27;;;;;;;-3.98;94.38;98938.06;5059656;28;20205;-80
2024/01/10 04:06:40;;;;;;;12.37;7.50;;;;;;;-3.92;94.73;98943.22;5058953;28;20579;-80
2024/01/10 04:09:08;;;;;;;16.97;7.57;;;;;;;-3.87;94.48;98951.81;5059285;28;20209;-80
2024/01/10 04:11:34;;;;;;;15.10;7.70;;;;;;;-3.84;93.93;98941.50;5057770;28;20226;-80
2024/01/10 04:14:01;;;;;;;11.57;6.40;;;;;;;-3.82;93.04;98944.91;5056643;28;20222;-80
2024/01/10 04:16:28;;;;;;;12.00;7.40;;;;;;;-3.81;92.27;98941.47;5057162;28;20246;-80
2024/01/10 04:18:54;;;;;;;11.43;7.27;;;;;;;-3.78;91.73;98939.75;5056826;28;20629;-80
2024/01/10 04:21:21;;;;;;;15.53;8.07;;;;;;;-3.72;91.35;98942.31;5057515;28;20225;-80
2024/01/10 04:23:49;;;;;;;13.97;7.67;;;;;;;-3.74;91.07;98938.91;5057279;28;20232;-80
2024/01/10 04:26:15;;;;;;;14.00;7.47;;;;;;;-3.75;90.97;98941.47;5056859;28;20229;-80
2024/01/10 04:28:42;;;;;;;10.80;7.50;;;;;;;-3.73;90.73;98939.78;5057632;28;20220;-80
2024/01/10 04:31:08;;;;;;;10.63;6.60;;;;;;;-3.73;90.53;98932.03;5058173;28;20246;-80
2024/01/10 04:33:36;;;;;;;15.70;7.30;;;;;;;-3.72;90.69;98928.56;5057720;28;20211;-80
2024/01/10 04:36:02;;;;;;;16.80;7.80;;;;;;;-3.69;90.23;98931.13;5057917;28;20306;-80
2024/01/10 04:38:29;;;;;;;14.97;8.13;;;;;;;-3.68;90.04;98932.88;5058273;28;20560;-80
2024/01/10 04:40:57;;;;;;;13.40;6.87;;;;;;;-3.65;89.58;98919.94;5057979;28;20581;-80
2024/01/10 04:43:23;;;;;;;12.73;6.90;;;;;;;-3.64;88.97;98911.34;5059011;28;20214;-80
2024/01/10 04:45:50;;;;;;;13.77;6.57;;;;;;;-3.66;88.79;98905.31;5059377;28;20237;-80
2024/01/10 04:48:16;;;;;;;16.17;8.10;;;;;;;-3.61;87.82;98909.59;5059878;28;20221;-80
2024/01/10 04:50:42;;;;;;;13.40;7.80;;;;;;;-3.61;87.56;98908.75;5060490;28;20224;-80
2024/01/10 04:53:09;;;;;;;10.47;6.57;;;;;;;-3.62;87.33;98912.22;5060162;28;20242;-81
2024/01/10 04:55:35;;;;;;;13.57;7.90;;;;;;;-3.59;87.09;98912.19;5061331;28;20210;-80
2024/01/10 04:58:03;;;;;;;12.57;7.03;;;;;;;-3.59;86.91;98901.84;5061475;28;20227;-80
2024/01/10 05:00:30;;;;;;;16.77;7.73;;;;;;;-3.55;86.21;98908.75;5061176;28;20204;-80
2024/01/10 05:02:57;;;;;;;13.80;7.27;;;;;;;-3.53;85.92;98901.84;5061112;28;20252;-80
2024/01/10 05:05:24;;;;;;;13.97;7.80;;;;;;;-3.50;85.33;98907.00;5061456;28;20210;-81
2024/01/10 05:07:50;;;;;;;10.37;6.40;;;;;;;-3.46;84.68;98903.56;5059930;28;20569;-80
2024/01/10 05:10:17;;;;;;;13.20;7.00;;;;;;;-3.44;84.49;98906.97;5061287;28;20213;-81
2024/01/10 05:12:43;;;;;;;14.70;7.23;;;;;;;-3.40;83.67;98903.53;5060275;28;20627;-81
2024/01/10 05:15:11;;;;;;;13.30;6.93;;;;;;;-3.45;83.13;98898.41;5060295;28;20207;-81
2024/01/10 05:17:38;;;;;;;12.17;7.00;;;;;;;-3.41;82.90;98896.66;5058411;28;20238;-81
2024/01/10 05:20:06;;;;;;;15.73;7.50;;;;;;;-3.36;82.80;98900.09;5059306;28;20212;-80
2024/01/10 05:22:32;;;;;;;14.50;6.90;;;;;;;-3.34;82.59;98903.53;5059179;28;20356;-81
2024/01/10 05:24:59;;;;;;;15.43;7.17;;;;;;;-3.36;83.05;98905.25;5059789;28;20219;-80
2024/01/10 05:27:25;;;;;;;11.73;7.03;;;;;;;-3.32;83.03;98899.22;5062960;28;20205;-80
2024/01/10 05:29:51;;;;;;;12.80;7.60;;;;;;;-3.31;83.21;98899.22;5062977;28;20217;-80
2024/01/10 05:32:19;;;;;;;14.57;7.50;;;;;;;-3.31;82.63;98901.78;5062940;28;20740;-81
2024/01/10 05:34:46;;;;;;;14.37;7.67;;;;;;;-3.27;82.94;98906.09;5062866;28;20228;-81
2024/01/10 05:37:12;;;;;;;14.27;6.47;;;;;;;-3.27;82.82;98900.06;5063928;28;20227;-80
2024/01/10 05:39:39;;;;;;;13.20;6.83;;;;;;;-3.32;83.14;98906.97;5063358;28;20232;-81
2024/01/10 05:42:06;;;;;;;13.53;7.57;;;;;;;-3.21;82.75;98900.03;5063508;28;20313;-81
2024/01/10 05:44:32;;;;;;;14.47;7.20;;;;;;;-3.25;82.49;98901.78;5062739;28;20215;-81
2024/01/10 05:46:59;;;;;;;10.70;6.80;;;;;;;-3.36;82.88;98900.09;5063163;28;20214;-81
2024/01/10 05:49:29;;;;;;;10.83;5.83;;;;;;;-3.38;84.08;98904.38;5063592;28;20231;-81
2024/01/10 05:51:55;;;;;;;13.23;7.60;;;;;;;-3.42;84.06;98910.44;5064717;28;20277;-81
2024/01/10 05:54:22;;;;;;;16.63;7.33;;;;;;;-3.53;84.94;98919.94;5063825;28;20217;-80
2024/01/10 05:56:49;;;;;;;12.47;6.97;;;;;;;-3.61;85.91;98912.19;5064194;28;20266;-81
2024/01/10 05:59:16;;;;;;;13.33;7.80;;;;;;;-3.63;86.93;98925.97;5062855;28;20218;-81
2024/01/10 06:01:43;;;;;;;11.47;7.20;;;;;;;-3.66;87.65;98931.16;5061591;28;20683;-81
2024/01/10 06:04:09;;;;;;;14.00;7.40;;;;;;;-3.72;88.03;98934.56;5060181;28;20215;-80
2024/01/10 06:06:37;;;;;;;12.80;7.10;;;;;;;-3.81;89.13;98926.84;5060571;28;20214;-80
2024/01/10 06:09:04;;;;;;;13.60;7.17;;;;;;;-3.85;90.32;98944.94;5060435;28;20217;-80
2024/01/10 06:11:31;;;;;;;11.30;6.77;;;;;;;-3.91;91.06;98945.78;5059415;28;20235;-80
2024/01/10 06:13:58;;;;;;;11.57;7.03;;;;;;;-3.98;91.20;98954.38;5060636;28;20639;-80
2024/01/10 06:16:25;;;;;;;11.90;7.47;;;;;;;-4.01;91.65;98958.69;5059856;28;20216;-80
2024/01/10 06:18:52;;;;;;;10.50;6.47;;;;;;;-4.07;91.92;98958.69;5060275;28;20752;-80
2024/01/10 06:21:18;;;;;;;17.60;7.13;;;;;;;-4.12;91.85;98955.22;5063254;28;20238;-81
2024/01/10 06:23:46;;;;;;;12.90;7.13;;;;;;;-4.17;91.57;98951.81;5063293;28;20687;-81
2024/01/10 06:26:16;;;;;;;14.23;7.30;;;;;;;-4.13;91.87;98958.66;5064033;28;20216;-80
2024/01/10 06:28:43;;;;;;;12.00;6.47;;;;;;;-4.15;91.61;98961.25;5063551;28;20200;-81
2024/01/10 06:31:10;;;;;;;14.10;7.47;;;;;;;-4.15;92.13;98960.41;5063170;28;20262;-80
2024/01/10 06:33:36;;;;;;;11.33;6.50;;;;;;;-4.15;92.20;98965.56;5063458;28;20214;-81
2024/01/10 06:36:08;;;;;;;13.47;7.07;;;;;;;-4.10;92.55;98974.19;5061810;28;20211;-80
2024/01/10 06:38:34;;;;;;;15.00;6.87;;;;;;;-4.09;92.16;98971.56;5060639;28;20234;-80
2024/01/10 06:41:08;;;;;;;13.23;7.40;;;;;;;-4.02;92.28;98977.63;5059817;28;20212;-80
2024/01/10 06:43:35;;;;;;;11.30;6.70;;;;;;;-4.02;92.04;98972.47;5060931;28;20195;-81
2024/01/10 06:46:03;;;;;;;11.97;6.97;;;;;;;-4.00;92.87;98975.88;5059815;28;20624;-81
2024/01/10 06:48:29;;;;;;;12.53;7.23;;;;;;;-3.92;92.66;98969.03;5059334;28;20211;-81
2024/01/10 06:50:56;;;;;;;13.63;7.23;;;;;;;-3.92;91.73;98969.03;5059494;28;20705;-81
2024/01/10 06:53:23;;;;;;;12.83;7.40;;;;;;;-3.93;90.92;98947.50;5060682;28;20279;-79
2024/01/10 06:55:49;;;;;;;14.20;7.33;;;;;;;-3.98;90.56;98958.69;5060849;28;20214;-81
2024/01/10 06:58:17;;;;;;;15.13;7.03;;;;;;;-3.99;90.10;98951.78;5060712;28;20225;-80
2024/01/10 07:00:44;;;;;;;14.33;7.27;;;;;;;-4.05;88.17;98946.63;5061136;28;20211;-79
2024/01/10 07:03:10;;;;;;;12.33;6.87;;;;;;;-4.15;88.20;98950.06;5060536;28;20235;-81
2024/01/10 07:05:37;;;;;;;15.57;7.00;;;;;;;-4.18;88.49;98960.38;5060392;28;20218;-81
2024/01/10 07:08:04;;;;;;;10.77;7.10;;;;;;;-4.28;89.16;98963.81;5059909;28;20208;-81
2024/01/10 07:10:32;;;;;;;11.70;6.63;;;;;;;-4.34;89.90;98968.97;5061954;28;20204;-79
2024/01/10 07:12:58;;;;;;;13.87;7.33;;;;;;;-4.38;90.67;98962.94;5061688;28;20661;-80
2024/01/10 07:15:26;;;;;;;13.80;7.50;;;;;;;-4.37;91.02;98963.78;5059093;28;20214;-78
2024/01/10 07:17:53;;;;;;;15.33;7.13;;;;;;;-4.35;90.69;98955.19;5062847;28;20234;-77
2024/01/10 07:20:20;;;;;;;12.37;6.93;;;;;;;-4.39;90.33;98957.75;5056078;28;20261;-78
2024/01/10 07:22:46;;;;;;;14.03;7.27;;;;;;;-4.35;90.78;98959.50;5055610;28;20238;-81
2024/01/10 07:25:14;;;;;;;14.80;7.80;;;;;;;-4.31;90.87;98967.25;5060284;28;20520;-81
2024/01/10 07:27:40;;;;;;;14.37;7.77;;;;;;;-4.36;91.20;98975.81;5058068;28;20262;-80
2024/01/10 07:30:13;;;;;;;13.03;7.23;;;;;;;-4.40;91.58;98985.28;5058374;28;20570;-81
2024/01/10 07:32:42;;;;;;;12.60;7.40;;;;;;;-4.47;91.96;98990.44;5056499;28;20656;-81
2024/01/10 07:35:09;;;;;;;13.03;7.27;;;;;;;-4.53;91.89;98982.66;5054642;28;20585;-80
2024/01/10 07:37:36;;;;;;;12.67;6.77;;;;;;;-4.58;91.96;98989.53;5054836;28;20281;-80
2024/01/10 07:40:04;;;;;;;12.57;7.03;;;;;;;-4.61;92.32;98997.22;5054426;28;20230;-81
2024/01/10 07:42:31;;;;;;;12.23;6.53;;;;;;;-4.65;92.24;98987.78;5053963;28;20266;-81
2024/01/10 07:44:57;;;;;;;14.20;7.83;;;;;;;-4.74;92.37;98996.34;5053933;28;20210;-78
2024/01/10 07:47:24;;;;;;;19.35;10.38;;;;;;;-4.76;92.56;99002.34;5063545;28;20480;-80
2024/01/10 07:49:52;;;;;;;14.97;8.17;;;;;;;-4.75;93.67;99007.50;5075356;28;20210;-80
2024/01/10 07:52:19;;;;;;;12.87;7.30;;;;;;;-4.77;94.01;99009.19;5074976;28;20228;-80
2024/01/10 07:54:49;;;;;;;14.57;7.97;;;;;;;-4.75;94.11;99007.50;5077218;28;20221;-78
2024/01/10 07:57:18;;;;;;;15.50;7.80;;;;;;;-4.64;94.16;99017.88;5071601;28;20240;-80
2024/01/10 07:59:44;;;;;;;18.07;7.70;;;;;;;-4.54;93.92;99011.88;5068593;28;20322;-80
2024/01/10 08:02:11;;;;;;;14.87;7.70;;;;;;;-4.39;93.17;99011.94;5079148;28;20241;-80
2024/01/10 08:04:38;;;;;;;17.30;7.87;;;;;;;-4.27;92.17;99014.56;5072960;28;20216;-80
2024/01/10 08:07:06;;;;;;;14.97;7.67;;;;;;;-4.22;91.46;99010.28;5077570;28;20219;-79
2024/01/10 08:09:32;;;;;;;12.70;7.57;;;;;;;-4.15;91.29;99014.59;5076272;28;20595;-79
2024/01/10 08:11:59;;;;;;;14.93;7.87;;;;;;;-4.06;90.83;99017.19;5074795;28;20256;-79
2024/01/10 08:14:26;;;;;;;12.07;7.33;;;;;;;-3.92;90.48;99015.50;5073196;28;20758;-81
2024/01/10 08:16:54;;;;;;;10.60;6.87;;;;;;;-3.84;89.99;99013.78;5074663;28;20207;-80
2024/01/10 08:19:21;;;;;;;13.63;7.40;;;;;;;-3.78;89.56;99009.47;5056358;28;20212;-81
2024/01/10 08:21:47;;;;;;;12.50;7.90;;;;;;;-3.71;89.50;99010.34;5063635;28;20592;-79
2024/01/10 08:24:15;;;;;;;17.60;8.57;;;;;;;-3.61;89.55;99015.50;5075522;28;20225;-78
2024/01/10 08:26:41;;;;;;;12.60;8.17;;;;;;;-3.49;89.52;99018.09;5073385;28;20202;-78
2024/01/10 08:29:08;;;;;;;13.03;7.53;;;;;;;-3.36;88.89;99006.06;5074435;28;20638;-81
2024/01/10 08:31:34;;;;;;;16.30;7.90;;;;;;;-3.26;88.83;99005.16;5074337;28;20321;-81
2024/01/10 08:34:01;;;;;;;15.87;8.50;;;;;;;-3.15;87.92;99006.00;5073313;28;20209;-80
2024/01/10 08:36:28;;;;;;;15.87;7.83;;;;;;;-3.06;87.00;99012.03;5072516;28;20724;-80
2024/01/10 08:38:54;;;;;;;17.93;8.10;;;;;;;-2.97;86.68;99012.03;5072110;28;20233;-80
2024/01/10 08:41:22;;;;;;;13.13;7.60;;;;;;;-2.89;85.75;99001.66;5071571;28;20237;-80
2024/01/10 08:43:48;;;;;;;16.37;7.93;;;;;;;-2.79;84.97;99005.94;5071968;28;20210;-80
2024/01/10 08:46:15;;;;;;;13.13;8.13;;;;;;;-2.75;85.01;99005.06;5072141;28;20610;-80
2024/01/10 08:48:42;;;;;;;15.17;8.20;;;;;;;-2.65;84.43;99004.16;5072192;28;20203;-80
2024/01/10 08:51:09;;;;;;;15.67;8.53;;;;;;;-2.58;84.45;98998.13;5072134;28;20235;-80
2024/01/10 08:53:36;;;;;;;14.23;7.97;;;;;;;-2.50;83.66;99011.88;5051861;28;20269;-80
2024/01/10 08:56:03;;;;;;;17.33;9.03;;;;;;;-2.46;83.41;99008.41;5052281;28;20217;-80
2024/01/10 08:58:31;;;;;;;17.97;9.00;;;;;;;-2.36;83.88;99007.50;5062948;28;20235;-81
2024/01/10 09:00:57;;;;;;;17.77;9.53;;;;;;;-2.27;82.55;99004.88;5068443;28;20700;-81
2024/01/10 09:03:24;;;;;;;19.53;9.53;;;;;;;-2.27;82.83;98999.69;5076602;28;20598;-80
2024/01/10 09:05:50;;;;;;;18.50;9.73;;;;;;;-2.10;81.17;98997.84;5076242;28;20226;-80
2024/01/10 09:08:17;;;;;;;20.13;9.17;;;;;;;-2.21;81.64;98990.16;5076185;28;20226;-81
2024/01/10 09:10:43;;;;;;;16.37;8.67;;;;;;;-2.28;81.80;99004.00;5075238;28;20587;-80
2024/01/10 09:13:10;;;;;;;16.30;9.13;;;;;;;-2.27;82.09;99010.91;5075505;28;20240;-81
2024/01/10 09:15:37;;;;;;;18.33;10.03;;;;;;;-2.24;82.18;99010.03;5076005;28;20210;-81
2024/01/10 09:18:04;;;;;;;17.43;9.87;;;;;;;-2.13;80.40;99003.06;5075732;28;20238;-80
2024/01/10 09:20:31;;;;;;;19.20;9.63;;;;;;;-2.09;78.95;98995.25;5076350;28;20211;-80
2024/01/10 09:22:59;;;;;;;18.97;10.23;;;;;;;-2.14;77.13;98986.66;5076076;28;20244;-80
2024/01/10 09:25:26;;;;;;;20.93;10.00;;;;;;;-2.28;77.18;98982.44;5067223;28;20330;-80
2024/01/10 09:27:53;;;;;;;18.27;9.70;;;;;;;-2.35;78.49;98988.50;5059523;28;20649;-80
2024/01/10 09:30:19;;;;;;;20.13;10.67;;;;;;;-2.24;78.53;98985.00;5075616;28;20217;-81
2024/01/10 09:32:47;;;;;;;18.50;9.93;;;;;;;-2.22;78.25;98995.34;5075483;28;20709;-80
2024/01/10 09:35:14;;;;;;;17.80;9.20;;;;;;;-2.32;79.14;99001.44;5075700;28;20670;-80
2024/01/10 09:37:40;;;;;;;19.10;10.47;;;;;;;-2.38;79.07;99001.47;5074817;28;20607;-80
2024/01/10 09:40:08;;;;;;;18.10;10.07;;;;;;;-2.39;79.66;99015.28;5075183;28;20221;-80
2024/01/10 09:42:37;;;;;;;19.37;10.70;;;;;;;-2.31;79.48;99016.09;5076017;28;20237;-80
2024/01/10 09:45:05;;;;;;;23.30;13.40;;;;;;;-2.26;80.73;99016.94;5068445;28;20923;-81
2024/01/10 09:47:33;;;;;;;20.43;12.43;;;;;;;-2.24;80.50;99025.56;5063541;28;20625;-82
2024/01/10 09:50:03;;;;;;;19.60;10.40;;;;;;;-2.30;79.87;99023.00;5079349;28;20214;-81
2024/01/10 09:52:38;;;;;;;20.13;11.00;;;;;;;-2.16;79.02;99021.19;5069755;28;20228;-81
2024/01/10 09:55:06;;;;;;;17.87;10.17;;;;;;;-2.19;79.32;99018.63;5068549;28;20220;-79
2024/01/10 09:57:34;;;;;;;21.50;11.43;;;;;;;-2.09;77.99;99004.78;5081008;28;20308;-81
2024/01/10 10:00:02;;;;;;;21.03;10.40;;;;;;;-1.95;78.61;99009.00;5072962;28;20277;-81
2024/01/10 10:02:29;;;;;;;19.40;10.60;;;;;;;-2.10;77.31;99003.03;5064445;28;20241;-80
2024/01/10 10:05:03;;;;;;;20.67;10.37;;;;;;;-2.18;77.42;98994.47;5064269;28;20218;-81
2024/01/10 10:07:30;;;;;;;19.47;10.43;;;;;;;-2.15;78.07;99002.22;5076725;28;20219;-81
2024/01/10 10:09:57;;;;;;;17.93;10.67;;;;;;;-2.13;78.05;98992.72;5074993;28;20214;-81
2024/01/10 10:12:23;;;;;;;19.70;11.13;;;;;;;-1.89;77.90;98997.75;5068465;28;20223;-81
2024/01/10 10:14:51;;;;;;;23.57;11.13;;;;;;;-1.95;76.51;98982.25;5064063;28;20305;-81
2024/01/10 10:17:18;;;;;;;20.97;11.23;;;;;;;-1.93;76.41;98975.31;5076449;28;20262;-81
2024/01/10 10:19:45;;;;;;;21.13;11.23;;;;;;;-1.94;76.93;98990.00;5073356;28;20231;-80
2024/01/10 10:22:13;;;;;;;22.97;12.30;;;;;;;-1.87;76.47;98977.84;5052285;28;20265;-80
2024/01/10 10:24:41;;;;;;;21.20;12.17;;;;;;;-1.74;76.54;98980.34;5076503;28;20203;-80
2024/01/10 10:27:09;;;;;;;19.30;10.57;;;;;;;-1.78;77.21;98985.56;5078951;28;20281;-81
2024/01/10 10:29:36;;;;;;;26.10;12.73;;;;;;;-1.72;76.22;98972.59;5055883;28;20213;-80
2024/01/10 10:32:03;;;;;;;23.33;12.40;;;;;;;-1.74;76.56;98972.59;5077849;28;20232;-79
2024/01/10 10:34:32;;;;;;;23.63;12.43;;;;;;;-1.75;77.01;98981.22;5055067;28;20225;-80
2024/01/10 10:36:58;;;;;;;23.80;12.67;;;;;;;-1.65;77.35;98984.59;5076914;28;20205;-80
2024/01/10 10:39:27;;;;;;;23.83;12.37;;;;;;;-1.45;77.46;98985.31;5073942;28;20231;-81
2024/01/10 10:41:54;;;;;;;24.10;12.40;;;;;;;-1.34;77.89;98988.66;5075942;28;20245;-81
2024/01/10 10:44:24;;;;;;;22.40;12.17;;;;;;;-1.28;78.51;98992.09;5055964;28;20211;-80
2024/01/10 10:46:54;;;;;;;26.53;12.60;;;;;;;-1.30;77.43;98990.38;5055188;28;20238;-80
2024/01/10 10:49:28;;;;;;;22.40;12.77;;;;;;;-1.32;76.90;98972.22;5055381;28;20219;-81
2024/01/10 10:51:58;;;;;;;27.20;12.43;;;;;;;-1.33;76.37;98977.41;5056612;28;20233;-81
2024/01/10 10:54:29;;;;;;;25.07;12.60;;;;;;;-1.45;75.67;98977.53;5056130;28;20706;-81
2024/01/10 10:56:58;;;;;;;25.17;12.73;;;;;;;-1.37;76.41;98983.50;5055896;28;20207;-81
2024/01/10 10:59:27;;;;;;;23.50;12.57;;;;;;;-1.25;76.98;98985.97;5055305;28;20224;-81
2024/01/10 11:01:55;;;;;;;27.13;14.53;;;;;;;-1.14;77.77;98990.22;5054099;28;20240;-80
2024/01/10 11:04:22;;;;;;;24.03;12.47;;;;;;;-0.97;77.99;98990.03;5055460;28;20635;-81
2024/01/10 11:06:49;;;;;;;21.67;12.13;;;;;;;-1.07;77.17;98978.03;5055455;28;20576;-80
2024/01/10 11:09:22;;;;;;;28.48;15.77;;;;;;;-1.16;77.63;98984.16;5055702;28;20506;-82
2024/01/10 11:12:06;;;;;;;23.43;13.37;;;;;;;-1.17;77.43;98991.97;5054987;28;20232;-82
2024/01/10 11:14:47;;;;;;;28.07;13.73;;;;;;;-0.97;77.85;98985.72;5054715;28;20295;-80
2024/01/10 11:17:53;;;;;;;23.03;12.60;;;;;;;-0.94;77.12;98979.63;5054806;28;20210;-82
2024/01/10 11:20:36;;;;;;;20.93;12.47;;;;;;;-0.87;75.23;98968.31;5048992;28;20210;-82
2024/01/10 11:23:31;;;;;;;21.70;11.80;;;;;;;-1.09;75.40;98964.22;5056587;28;20764;-82
2024/01/10 11:25:58;;;;;;;24.80;12.20;;;;;;;-0.94;76.27;98977.00;5055422;28;20215;-78
2024/01/10 11:28:28;;;;;;;24.60;13.40;;;;;;;-0.89;78.06;98989.09;5053732;28;20310;-79